Aviation Digital Data Service (ADDS)

Output produced by METARs form (1200 UTC 26 March 2019)
found at http://www.aviationweather.gov/metar/data/
 
MUSC 261100Z 2612/2712 VRB03KT 9000 SCT020 
     BECMG 2615/2617 03012KT
       
MUCU 261100Z 2612/2712 VRB03KT 9000 SCT020 
     BECMG 2615/2617 18010KT 
     TEMPO 2618/2624 5000 SHRA SCT020CB BKN040
       
MUHG 261100Z 2612/2712 VRB03KT 9000 SCT020 
     TEMPO 2612/2614 5000 BR 
     BECMG 2615/2617 06010KT 
     TEMPO 2618/2624 5000 SHRA SCT020CB BKN040
       
TAF MUGM 2607/2707 34006KT 9999 SCT030 SCT110 QNH2992INS 
     BECMG 2617/2619 22012KT QNH2993INS 
     BECMG 2702/2704 34009KT QNH2997INS T22/2611Z T29/2619Z FN00205
       
MUCM 261100Z 2612/2712 02010KT 9000 SCT020 
     TEMPO 2618/2624 5000 SHRA SCT020CB BKN040
       
MUCF 261100Z 2612/2624 VRB03KT 9000 SCT020 
     BECMG 2615/2617 05008KT
       
MUCC 261100Z 2612/2712 VRB03KT 9000 SCT020 
     BECMG 2615/2617 02010KT
       
MUHA 261100Z 2612/2712 VRB03KT 2000 PRFG FEW030 
     BECMG 2614/2616 07010KT 9000 SCT030 
     TEMPO 2619/2623 VRB10KT 5000 SHRA FEW020CB BKN030 
     BECMG 2703/2705 VRB03KT 
     TEMPO 2709/2712 2000 PRFG
       
MUVR 261100Z 2612/2712 VRB03KT 9000 SCT020 
     BECMG 2615/2617 02010KT
       
MUCL 261100Z 2612/2624 04010KT 9000 SCT020